SFO weather

San Francisco International Airport
San Francisco, California, United States

Public forecast

Using degrees Fahrenheit for public forecast. Weather courtesy of forecast.io.

METAR (pilot weather report)

Retrieved 2018/10/17 03:56 UTC (1 hour ago):

KSFO 170356Z 30009KT 10SM FEW008 13/11 A3004 RMK AO2 SLP173 T01330106

TAF (pilot weather forecast)

Forecast is more than 12 hours old.

Retrieved 2018/10/16 00:36 UTC (1 day ago):

TAF KSFO 162332Z 1700/1806 30015KT P6SM SKC FM170500 28006KT P6SM FEW010 FM171400 03003KT P6SM FEW010 FM172000 29015KT P6SM SKC FM180400 29008KT P6SM SKC